createdAt,value
2023-04-02T00:00:22.941Z,5.03
2023-04-02T00:05:52.837Z,4.55
2023-04-02T00:10:59.456Z,4.78
2023-04-02T00:16:28.958Z,4.70
2023-04-02T00:21:35.374Z,7.05
2023-04-02T00:26:44.999Z,3.63
2023-04-02T00:31:51.994Z,4.70
2023-04-02T00:36:58.058Z,3.22
2023-04-02T00:42:06.950Z,2.25
2023-04-02T00:47:21.747Z,3.22
2023-04-02T00:52:27.991Z,1.80
2023-04-02T00:57:31.129Z,2.78
2023-04-02T01:05:17.672Z,5.72
2023-04-02T01:10:49.579Z,4.00
2023-04-02T01:16:19.430Z,3.50
2023-04-02T01:21:42.661Z,3.22
2023-04-02T01:27:02.908Z,2.50
2023-04-02T01:32:19.055Z,2.90
2023-04-02T01:37:40.157Z,2.67
2023-04-02T01:43:08.480Z,2.38
2023-04-02T01:48:17.753Z,1.08
2023-04-02T01:53:22.350Z,2.50
2023-04-02T01:58:28.223Z,4.60
2023-04-02T02:03:31.925Z,1.92
2023-04-02T02:08:40.044Z,1.73
2023-04-02T02:18:53.846Z,2.38
2023-04-02T02:23:57.658Z,1.75
2023-04-02T02:29:04.478Z,1.58
2023-04-02T02:34:23.378Z,2.80
2023-04-02T02:39:34.717Z,3.10
2023-04-02T02:44:49.783Z,1.33
2023-04-02T02:50:00.340Z,2.92
2023-04-02T02:55:39.000Z,1.00
2023-04-02T03:00:58.864Z,1.38
2023-04-02T03:06:23.496Z,2.33
2023-04-02T03:11:49.207Z,1.65
2023-04-02T03:17:03.599Z,1.17
2023-04-02T03:22:36.038Z,1.05
2023-04-02T03:27:48.067Z,1.02
2023-04-02T03:32:55.190Z,1.85
2023-04-02T03:38:16.711Z,1.17
2023-04-02T03:43:31.552Z,2.15
2023-04-02T03:48:55.732Z,1.80
2023-04-02T03:54:15.523Z,1.27
2023-04-02T03:59:29.944Z,1.27
2023-04-02T04:04:41.776Z,0.82
2023-04-02T04:09:53.430Z,2.03
2023-04-02T04:15:06.574Z,1.50
2023-04-02T04:35:03.184Z,0.93
2023-04-02T04:40:32.346Z,1.20
2023-04-02T04:46:12.691Z,0.73
2023-04-02T04:52:01.016Z,0.75
2023-04-02T04:57:06.756Z,0.88
2023-04-02T05:16:14.765Z,0.70
2023-04-02T05:22:03.552Z,0.95
2023-04-02T05:28:03.406Z,1.52
2023-04-02T05:33:29.002Z,0.98
2023-04-02T05:38:48.922Z,2.25
2023-04-02T05:44:17.897Z,1.02
2023-04-02T06:01:18.223Z,0.82
2023-04-02T06:06:56.533Z,2.35
2023-04-02T06:12:28.011Z,1.50
2023-04-02T06:17:56.111Z,0.77
2023-04-02T06:23:12.598Z,0.77
2023-04-02T06:28:35.338Z,2.05
2023-04-02T06:34:03.743Z,2.92
2023-04-02T06:39:25.140Z,0.98
2023-04-02T06:44:35.844Z,0.70
2023-04-02T06:50:48.648Z,0.80
2023-04-02T06:56:30.210Z,0.88
2023-04-02T07:01:37.817Z,1.42
2023-04-02T07:06:42.346Z,0.73
2023-04-02T07:11:50.542Z,0.98
2023-04-02T07:17:06.423Z,2.05
2023-04-02T07:22:25.441Z,0.90
2023-04-02T07:27:37.825Z,2.60
2023-04-02T07:32:53.561Z,0.95
2023-04-02T07:37:58.286Z,0.77
2023-04-02T07:43:06.518Z,1.95
2023-04-02T07:48:15.267Z,1.50
2023-04-02T07:53:50.561Z,1.05
2023-04-02T07:58:55.834Z,0.75
2023-04-02T08:04:04.304Z,1.00
2023-04-02T08:09:08.100Z,0.88
2023-04-02T08:14:12.196Z,0.95
2023-04-02T08:19:14.728Z,1.60
2023-04-02T08:24:25.193Z,2.17
2023-04-02T08:29:33.440Z,0.88
2023-04-02T08:34:45.019Z,1.77
2023-04-02T08:39:51.277Z,1.20
2023-04-02T08:50:37.055Z,0.80
2023-04-02T08:56:18.893Z,3.42
2023-04-02T09:01:47.689Z,1.70
2023-04-02T09:07:14.631Z,1.83
2023-04-02T09:12:32.085Z,1.33
2023-04-02T09:17:50.561Z,2.45
2023-04-02T09:23:00.467Z,1.00
2023-04-02T09:28:09.730Z,1.05
2023-04-02T09:33:20.120Z,0.93
2023-04-02T09:38:36.623Z,1.05
2023-04-02T09:43:52.476Z,1.10
2023-04-02T09:49:02.671Z,2.17
2023-04-02T09:54:18.011Z,3.55
2023-04-02T09:59:24.949Z,1.33
2023-04-02T10:04:45.425Z,2.10
2023-04-02T10:09:58.796Z,1.50
2023-04-02T10:15:03.324Z,0.68
2023-04-02T10:20:28.480Z,6.75
2023-04-02T10:25:43.695Z,3.25
2023-04-02T10:31:02.627Z,1.75
2023-04-02T10:36:33.291Z,1.63
2023-04-02T10:41:59.807Z,1.33
2023-04-02T10:47:27.411Z,2.83
2023-04-02T10:52:34.380Z,1.10
2023-04-02T10:57:47.736Z,1.75
2023-04-02T11:03:14.648Z,2.58
2023-04-02T11:08:19.203Z,1.00
2023-04-02T11:13:35.682Z,1.30
2023-04-02T11:18:38.637Z,4.22
2023-04-02T11:24:04.316Z,1.52
2023-04-02T11:29:12.347Z,3.13
2023-04-02T11:34:37.085Z,1.42
2023-04-02T11:39:55.082Z,1.80
2023-04-02T11:45:29.017Z,2.90
2023-04-02T11:50:44.460Z,4.00
2023-04-02T11:56:24.526Z,3.08
2023-04-02T12:01:30.241Z,1.55
2023-04-02T12:07:11.411Z,1.73
2023-04-02T12:12:41.726Z,3.92
2023-04-02T12:17:45.050Z,1.30
2023-04-02T12:22:51.476Z,4.38
2023-04-02T12:28:17.991Z,3.97
2023-04-02T12:33:19.877Z,2.13
2023-04-02T12:38:24.777Z,5.10
2023-04-02T12:43:32.478Z,3.70
2023-04-02T12:48:39.379Z,7.68
2023-04-02T12:53:42.088Z,5.35
2023-04-02T12:58:44.415Z,6.45
2023-04-02T13:04:10.720Z,4.40
2023-04-02T13:09:44.926Z,4.32
2023-04-02T13:14:52.973Z,4.07
2023-04-02T13:19:55.131Z,3.70
2023-04-02T13:24:57.347Z,3.17
2023-04-02T13:30:12.023Z,5.20
2023-04-02T13:35:21.302Z,4.45
2023-04-02T13:40:23.508Z,4.72
2023-04-02T13:45:40.942Z,2.40
2023-04-02T13:50:43.111Z,7.53
2023-04-02T13:55:45.309Z,4.93
2023-04-02T14:00:48.126Z,10.32
2023-04-02T14:12:10.211Z,5.85
2023-04-02T14:17:58.235Z,4.47
2023-04-02T14:23:28.950Z,11.52
2023-04-02T14:29:12.476Z,4.97
2023-04-02T14:34:23.207Z,5.82
2023-04-02T14:39:49.890Z,8.25
2023-04-02T14:45:01.954Z,6.20
2023-04-02T14:50:29.700Z,9.48
2023-04-02T14:55:44.210Z,5.93
2023-04-02T15:00:57.480Z,7.90
2023-04-02T15:06:03.496Z,6.05
2023-04-02T15:11:34.263Z,7.55
2023-04-02T15:16:36.646Z,7.78
2023-04-02T15:21:57.689Z,6.10
2023-04-02T15:27:18.252Z,9.65
2023-04-02T15:32:42.769Z,7.65
2023-04-02T15:38:27.602Z,6.68
2023-04-02T15:43:32.409Z,6.57
2023-04-02T15:49:16.435Z,5.82
2023-04-02T15:54:36.787Z,4.75
2023-04-02T16:00:07.372Z,11.63
2023-04-02T16:05:31.916Z,11.63
2023-04-02T16:10:42.615Z,8.15
2023-04-02T16:15:58.715Z,7.93
2023-04-02T16:21:04.109Z,8.40
2023-04-02T16:26:14.904Z,6.82
2023-04-02T16:31:27.411Z,7.80
2023-04-02T16:37:08.221Z,7.78
2023-04-02T16:42:53.249Z,6.85
2023-04-02T16:48:07.418Z,10.35
2023-04-02T16:53:19.427Z,3.40
2023-04-02T16:58:24.159Z,5.35
2023-04-02T17:03:38.177Z,10.55
2023-04-02T17:08:44.401Z,7.57
2023-04-02T17:14:18.409Z,8.02
2023-04-02T17:19:31.602Z,6.43
2023-04-02T17:24:42.058Z,8.45
2023-04-02T17:35:43.256Z,10.55
2023-04-02T17:41:23.938Z,10.20
2023-04-02T17:46:45.074Z,12.73
2023-04-02T17:52:01.039Z,8.90
2023-04-02T17:57:19.416Z,6.85
2023-04-02T18:02:43.932Z,7.75
2023-04-02T18:07:55.835Z,10.82
2023-04-02T18:18:23.923Z,7.40
2023-04-02T18:23:37.922Z,4.68
2023-04-02T18:28:46.448Z,11.00
2023-04-02T18:34:11.022Z,5.60
2023-04-02T18:39:57.440Z,5.47
2023-04-02T18:45:14.046Z,7.03
2023-04-02T18:50:39.881Z,6.90
2023-04-02T18:56:24.882Z,6.93
2023-04-02T19:01:47.908Z,4.78
2023-04-02T19:07:09.047Z,8.63
2023-04-02T19:12:27.094Z,11.93
2023-04-02T19:17:46.214Z,4.57
2023-04-02T19:22:54.225Z,3.40
2023-04-02T19:28:11.706Z,3.70
2023-04-02T19:33:37.834Z,4.10
2023-04-02T19:39:03.322Z,5.47
2023-04-02T19:44:11.735Z,6.18
2023-04-02T19:49:17.051Z,4.53
2023-04-02T19:54:19.368Z,3.50
2023-04-02T19:59:22.426Z,8.13
2023-04-02T20:04:25.032Z,2.97
2023-04-02T20:09:27.033Z,3.28
2023-04-02T20:14:29.226Z,5.75
2023-04-02T20:24:34.543Z,2.03
2023-04-02T20:29:36.635Z,4.50
2023-04-02T20:34:39.071Z,3.35
2023-04-02T20:39:41.468Z,4.22
2023-04-02T20:44:43.604Z,3.80
2023-04-02T20:50:10.009Z,2.70
2023-04-02T20:55:20.319Z,2.50
2023-04-02T21:00:25.860Z,2.90
2023-04-02T21:05:32.778Z,8.15
2023-04-02T21:10:40.436Z,6.82
2023-04-02T21:15:45.831Z,3.55
2023-04-02T21:21:15.044Z,4.65
2023-04-02T21:26:22.888Z,5.32
2023-04-02T21:31:31.168Z,3.28
2023-04-02T21:36:36.717Z,1.42
2023-04-02T21:41:41.280Z,2.05
2023-04-02T21:46:44.394Z,1.63
2023-04-02T21:51:47.296Z,3.80
2023-04-02T21:56:49.770Z,3.88
2023-04-02T22:01:52.596Z,4.40
2023-04-02T22:06:54.787Z,5.32
2023-04-02T22:12:02.400Z,4.40
2023-04-02T22:17:04.611Z,4.35
2023-04-02T22:22:06.862Z,4.25
2023-04-02T22:27:08.858Z,4.82
2023-04-02T22:32:11.036Z,4.70
2023-04-02T22:37:14.071Z,3.75
2023-04-02T22:42:16.756Z,7.57
2023-04-02T22:47:18.982Z,5.32
2023-04-02T22:52:24.210Z,4.50
2023-04-02T22:57:26.370Z,3.92
2023-04-02T23:07:35.057Z,5.10
2023-04-02T23:12:44.884Z,5.75
2023-04-02T23:17:50.810Z,3.53
2023-04-02T23:22:53.101Z,3.75
2023-04-02T23:27:55.752Z,2.80
2023-04-02T23:33:08.263Z,4.25
2023-04-02T23:38:20.152Z,3.28
2023-04-02T23:43:44.666Z,4.00
2023-04-02T23:48:53.233Z,3.92
2023-04-02T23:59:46.191Z,3.47
